Time;durP1;ratioP1;P1;durP2;ratioP2;P2;SDS_P1;SDS_P2;PMS_P1;PMS_P2;Temp;Humidity;BMP_temperature;BMP_pressure;BME280_temperature;BME280_humidity;BME280_pressure;Samples;Min_cycle;Max_cycle;Signal;HPM_P1;HPM_P2
2023/08/18 00:01:39;;;;;;;1.35;1.33;;;;;20.10;96064.00;;;;5137732;27;20190;-59
2023/08/18 00:04:06;;;;;;;1.10;1.10;;;;;20.10;96058.00;;;;5137589;27;20668;-60
2023/08/18 00:06:33;;;;;;;1.73;1.63;;;;;20.10;96061.00;;;;5137395;27;20216;-60
2023/08/18 00:09:04;;;;;;;2.38;2.17;;;;;20.10;96057.00;;;;5137557;27;20185;-60
2023/08/18 00:11:31;;;;;;;1.87;1.77;;;;;20.10;96069.00;;;;5138160;27;20198;-59
2023/08/18 00:13:58;;;;;;;2.13;2.03;;;;;20.10;96057.00;;;;5137502;27;20192;-59
2023/08/18 00:16:26;;;;;;;2.97;2.70;;;;;20.10;96054.00;;;;5137668;27;20687;-59
2023/08/18 00:18:53;;;;;;;1.60;1.50;;;;;20.00;96061.00;;;;5137810;27;20212;-60
2023/08/18 00:21:21;;;;;;;2.00;1.90;;;;;20.00;96065.00;;;;5137466;27;20193;-60
2023/08/18 00:23:48;;;;;;;1.83;1.73;;;;;19.80;96061.00;;;;5137119;27;20596;-60
2023/08/18 00:26:17;;;;;;;1.50;1.40;;;;;19.80;96057.00;;;;5137192;27;20213;-60
2023/08/18 00:28:44;;;;;;;1.95;1.83;;;;;19.70;96053.00;;;;5137584;27;20189;-60
2023/08/18 00:31:11;;;;;;;1.63;1.53;;;;;19.80;96054.00;;;;5135850;27;20204;-60
2023/08/18 00:33:39;;;;;;;1.77;1.67;;;;;19.70;96057.00;;;;5137217;27;20526;-59
2023/08/18 00:36:06;;;;;;;1.27;1.27;;;;;19.70;96063.00;;;;5137088;27;20209;-60
2023/08/18 00:38:34;;;;;;;1.70;1.58;;;;;19.60;96064.00;;;;5136883;27;20218;-59
2023/08/18 00:41:01;;;;;;;1.83;1.67;;;;;19.60;96069.00;;;;5136961;27;20195;-59
2023/08/18 00:43:30;;;;;;;2.27;2.17;;;;;19.60;96066.00;;;;5136978;27;20197;-59
2023/08/18 00:45:58;;;;;;;1.92;1.83;;;;;19.60;96068.00;;;;5136781;27;20216;-59
2023/08/18 00:48:26;;;;;;;2.37;2.27;;;;;19.60;96069.00;;;;5137214;27;20185;-59
2023/08/18 00:50:54;;;;;;;1.67;1.58;;;;;19.60;96065.00;;;;5135608;27;20546;-59
2023/08/18 00:53:21;;;;;;;2.07;1.97;;;;;19.70;96060.00;;;;5136861;27;20547;-60
2023/08/18 00:55:49;;;;;;;1.60;1.50;;;;;19.70;96059.00;;;;5136792;27;20546;-60
2023/08/18 00:58:17;;;;;;;1.87;1.77;;;;;19.70;96050.00;;;;5136652;27;20574;-60
2023/08/18 01:00:47;;;;;;;1.43;1.33;;;;;19.70;96054.00;;;;5136776;27;20580;-60
2023/08/18 01:03:14;;;;;;;1.27;1.27;;;;;19.60;96054.00;;;;5136554;27;20190;-60
2023/08/18 01:05:41;;;;;;;1.97;1.87;;;;;19.60;96051.00;;;;5135893;27;20705;-59
2023/08/18 01:08:09;;;;;;;1.77;1.67;;;;;19.40;96055.00;;;;5136603;27;20192;-60
2023/08/18 01:10:46;;;;;;;1.23;1.23;;;;;19.40;96047.00;;;;5137611;27;20219;-60
2023/08/18 01:13:19;;;;;;;1.10;1.10;;;;;19.40;96047.00;;;;5136937;27;20238;-60
2023/08/18 01:15:52;;;;;;;1.40;1.30;;;;;19.40;96043.00;;;;5136392;27;20648;-60
2023/08/18 01:18:21;;;;;;;2.00;1.90;;;;;19.40;96029.00;;;;5136066;27;20197;-60
2023/08/18 01:20:51;;;;;;;1.67;1.57;;;;;19.20;96039.00;;;;5136735;27;20543;-60
2023/08/18 01:23:20;;;;;;;2.90;2.23;;;;;19.00;96033.00;;;;5136137;27;20196;-60
2023/08/18 01:25:47;;;;;;;2.60;2.43;;;;;18.90;96040.00;;;;5136300;27;20197;-60
2023/08/18 01:28:14;;;;;;;2.07;1.57;;;;;18.70;96023.00;;;;5136298;27;20193;-60
2023/08/18 01:30:46;;;;;;;1.80;1.70;;;;;18.60;96031.00;;;;5135977;27;20186;-60
2023/08/18 01:33:21;;;;;;;2.33;2.13;;;;;18.70;96032.00;;;;5136175;27;20189;-60
2023/08/18 01:35:52;;;;;;;2.40;2.23;;;;;18.70;96037.00;;;;5135972;27;20189;-60
2023/08/18 01:38:25;;;;;;;1.33;1.33;;;;;18.80;96032.00;;;;5136348;27;20201;-60
2023/08/18 01:40:53;;;;;;;1.73;1.63;;;;;18.80;96029.00;;;;5135959;27;20182;-59
2023/08/18 01:43:22;;;;;;;2.10;2.00;;;;;18.90;96040.00;;;;5135992;27;20186;-60
2023/08/18 01:45:49;;;;;;;1.90;1.80;;;;;19.00;96033.00;;;;5135672;27;20653;-60
2023/08/18 01:48:16;;;;;;;1.73;1.63;;;;;18.90;96039.00;;;;5135995;27;20545;-60
2023/08/18 01:50:44;;;;;;;1.30;1.20;;;;;18.90;96030.00;;;;5135674;27;20200;-60
2023/08/18 01:53:11;;;;;;;2.50;1.83;;;;;18.90;96035.00;;;;5135632;27;20196;-60
2023/08/18 01:55:42;;;;;;;1.87;1.77;;;;;18.90;96029.00;;;;5135515;27;20193;-61
2023/08/18 01:58:09;;;;;;;1.03;1.03;;;;;18.90;96033.00;;;;5136065;27;20197;-60
2023/08/18 02:00:36;;;;;;;4.50;2.67;;;;;18.90;96027.00;;;;5136362;27;20196;-59
2023/08/18 02:03:04;;;;;;;2.07;1.90;;;;;18.80;96033.00;;;;5136146;27;20198;-61
2023/08/18 02:05:32;;;;;;;2.10;2.00;;;;;18.80;96023.00;;;;5135817;27;20198;-60
2023/08/18 02:08:01;;;;;;;1.53;1.10;;;;;18.70;96020.00;;;;5135771;27;20209;-61
2023/08/18 02:10:28;;;;;;;1.83;1.73;;;;;18.60;96020.00;;;;5135494;27;20273;-60
2023/08/18 02:12:58;;;;;;;1.50;1.40;;;;;18.40;96016.00;;;;5135079;27;20308;-60
2023/08/18 02:15:26;;;;;;;0.90;0.90;;;;;18.40;96012.00;;;;5135119;27;20193;-59
2023/08/18 02:17:53;;;;;;;2.27;2.17;;;;;18.40;96019.00;;;;5134020;27;20221;-59
2023/08/18 02:20:21;;;;;;;1.37;1.27;;;;;18.40;96015.00;;;;5135318;27;20644;-60
2023/08/18 02:22:48;;;;;;;1.30;1.30;;;;;18.50;96017.00;;;;5134953;27;20276;-60
2023/08/18 02:25:16;;;;;;;2.07;1.97;;;;;18.50;96020.00;;;;5135074;27;20212;-59
2023/08/18 02:27:43;;;;;;;1.70;1.43;;;;;18.50;96021.00;;;;5134810;27;20213;-60
2023/08/18 02:30:13;;;;;;;1.10;1.10;;;;;18.50;96027.00;;;;5135348;27;20208;-60
2023/08/18 02:32:40;;;;;;;1.20;1.20;;;;;18.40;96023.00;;;;5134869;27;20562;-60
2023/08/18 02:35:08;;;;;;;1.00;1.00;;;;;18.40;96015.00;;;;5135302;27;20193;-60
2023/08/18 02:37:35;;;;;;;2.73;2.27;;;;;18.30;96027.00;;;;5134683;27;20304;-59
2023/08/18 02:40:05;;;;;;;2.10;1.90;;;;;18.40;96021.00;;;;5134831;27;20572;-59
2023/08/18 02:42:33;;;;;;;1.23;1.23;;;;;18.40;96023.00;;;;5134694;27;20268;-60
2023/08/18 02:45:01;;;;;;;1.57;1.47;;;;;18.30;96017.00;;;;5135172;27;20644;-59
2023/08/18 02:47:29;;;;;;;1.67;1.50;;;;;18.30;96012.00;;;;5134934;27;20632;-59
2023/08/18 02:49:57;;;;;;;2.17;2.07;;;;;18.20;96002.00;;;;5134418;27;20196;-61
2023/08/18 02:52:24;;;;;;;1.87;1.77;;;;;18.20;96002.00;;;;5133120;27;20249;-60
2023/08/18 02:54:51;;;;;;;0.90;0.90;;;;;18.10;96007.00;;;;5134556;27;20207;-60
2023/08/18 02:57:19;;;;;;;1.30;1.20;;;;;18.10;96009.00;;;;5134300;27;20569;-60
2023/08/18 02:59:46;;;;;;;2.07;1.83;;;;;18.00;96010.00;;;;5134550;27;20213;-60
2023/08/18 03:02:14;;;;;;;1.13;1.13;;;;;18.10;96018.00;;;;5134777;27;20250;-60
2023/08/18 03:04:42;;;;;;;1.67;1.57;;;;;18.00;96003.00;;;;5134267;27;20200;-60
2023/08/18 03:07:10;;;;;;;1.10;1.07;;;;;18.10;96000.00;;;;5134229;27;20216;-60
2023/08/18 03:09:37;;;;;;;1.73;1.63;;;;;18.00;96003.00;;;;5134468;27;20193;-61
2023/08/18 03:12:05;;;;;;;1.10;1.10;;;;;18.00;96009.00;;;;5134212;27;20193;-59
2023/08/18 03:14:32;;;;;;;1.30;1.30;;;;;18.10;96010.00;;;;5134177;27;20545;-60
2023/08/18 03:17:00;;;;;;;2.70;2.50;;;;;17.90;96011.00;;;;5132862;28;20213;-61
2023/08/18 03:19:27;;;;;;;1.07;1.00;;;;;17.90;96012.00;;;;5134063;28;20216;-61
2023/08/18 03:21:56;;;;;;;0.90;0.90;;;;;17.90;96007.00;;;;5134232;28;20200;-61
2023/08/18 03:24:24;;;;;;;1.80;1.70;;;;;17.80;96006.00;;;;5134355;28;20189;-61
2023/08/18 03:26:51;;;;;;;1.20;1.17;;;;;17.70;96010.00;;;;5134016;28;20216;-60
2023/08/18 03:29:19;;;;;;;1.33;1.23;;;;;17.70;96013.00;;;;5136255;27;20608;-60
2023/08/18 03:31:46;;;;;;;1.60;1.50;;;;;17.60;95990.00;;;;5137399;27;20197;-59
2023/08/18 03:34:14;;;;;;;1.33;1.27;;;;;17.70;96007.00;;;;5138520;27;20189;-62
2023/08/18 03:36:41;;;;;;;2.93;1.67;;;;;17.70;96002.00;;;;5138322;27;20580;-61
2023/08/18 03:39:10;;;;;;;1.13;1.13;;;;;17.70;96008.00;;;;5138078;27;20258;-60
2023/08/18 03:41:38;;;;;;;1.83;1.70;;;;;17.70;96007.00;;;;5138217;27;20190;-59
2023/08/18 03:44:05;;;;;;;0.70;0.70;;;;;17.70;96009.00;;;;5138452;27;20221;-60
2023/08/18 03:46:33;;;;;;;1.03;1.03;;;;;17.70;96007.00;;;;5137972;27;20220;-60
2023/08/18 03:49:02;;;;;;;1.37;1.37;;;;;17.50;96005.00;;;;5138266;27;20185;-59
2023/08/18 03:51:29;;;;;;;1.67;1.57;;;;;17.50;96010.00;;;;5137885;27;20196;-59
2023/08/18 03:53:57;;;;;;;1.40;1.33;;;;;17.50;96003.00;;;;5137799;27;20185;-60
2023/08/18 03:56:26;;;;;;;0.90;0.90;;;;;17.50;96008.00;;;;5137771;27;20213;-60
2023/08/18 03:58:53;;;;;;;1.57;1.50;;;;;17.60;96005.00;;;;5138060;27;20221;-60
2023/08/18 04:01:21;;;;;;;1.33;1.23;;;;;17.60;96011.00;;;;5137699;27;20189;-60
2023/08/18 04:03:50;;;;;;;1.40;1.40;;;;;17.60;96011.00;;;;5137738;27;20691;-60
2023/08/18 04:06:17;;;;;;;3.23;1.30;;;;;17.70;95999.00;;;;5137736;27;20209;-60
2023/08/18 04:08:45;;;;;;;1.17;1.17;;;;;17.60;95998.00;;;;5137680;27;20182;-60
2023/08/18 04:11:13;;;;;;;2.27;1.20;;;;;17.60;95995.00;;;;5138490;27;20196;-61
2023/08/18 04:13:42;;;;;;;1.20;1.10;;;;;17.60;96000.00;;;;5137646;27;20216;-59
2023/08/18 04:16:09;;;;;;;1.10;1.10;;;;;17.60;96007.00;;;;5137467;27;20205;-60
2023/08/18 04:18:36;;;;;;;1.27;1.27;;;;;17.60;96007.00;;;;5137855;27;20224;-59
2023/08/18 04:21:04;;;;;;;1.43;1.10;;;;;17.50;96002.00;;;;5137403;27;20721;-60
2023/08/18 04:23:31;;;;;;;1.23;1.20;;;;;17.50;96013.00;;;;5136046;27;20193;-59
2023/08/18 04:26:00;;;;;;;1.30;1.30;;;;;17.40;96009.00;;;;5137458;27;20212;-60
2023/08/18 04:28:28;;;;;;;2.20;1.60;;;;;17.20;96009.00;;;;5137278;27;20200;-60
2023/08/18 04:30:56;;;;;;;0.63;0.63;;;;;17.30;96012.00;;;;5137615;27;20193;-59
2023/08/18 04:33:24;;;;;;;1.37;1.27;;;;;17.30;96011.00;;;;5137693;27;20545;-60
2023/08/18 04:35:51;;;;;;;2.10;2.00;;;;;17.30;96002.00;;;;5137390;27;20196;-61
2023/08/18 04:38:18;;;;;;;1.10;1.10;;;;;17.30;96006.00;;;;5137144;27;20190;-60
2023/08/18 04:40:56;;;;;;;1.43;1.43;;;;;17.40;96011.00;;;;5135984;27;20220;-60
2023/08/18 04:43:23;;;;;;;1.63;1.53;;;;;17.30;96011.00;;;;5137121;27;20173;-60
2023/08/18 04:45:51;;;;;;;0.93;0.93;;;;;17.20;96013.00;;;;5135751;27;20235;-59
2023/08/18 04:48:20;;;;;;;1.33;1.23;;;;;17.20;96006.00;;;;5136768;27;20673;-60
2023/08/18 04:50:48;;;;;;;2.37;2.17;;;;;17.30;96011.00;;;;5136805;27;20189;-59
2023/08/18 04:53:16;;;;;;;2.10;2.00;;;;;17.30;96015.00;;;;5137059;27;20699;-59
2023/08/18 04:55:44;;;;;;;1.67;1.57;;;;;17.30;96007.00;;;;5137210;27;20203;-60
2023/08/18 04:58:13;;;;;;;0.90;0.90;;;;;17.50;96009.00;;;;5137116;27;20201;-60
2023/08/18 05:00:40;;;;;;;1.00;1.00;;;;;17.40;96007.00;;;;5136893;27;20569;-59
2023/08/18 05:03:07;;;;;;;1.10;1.10;;;;;17.60;96014.00;;;;5135310;27;20725;-61
2023/08/18 05:05:40;;;;;;;1.13;1.03;;;;;17.60;96008.00;;;;5136513;27;20202;-59
2023/08/18 05:08:08;;;;;;;1.57;1.47;;;;;17.60;96006.00;;;;5136542;27;20178;-60
2023/08/18 05:10:35;;;;;;;1.87;1.30;;;;;17.60;96012.00;;;;5136356;27;20197;-60
2023/08/18 05:13:02;;;;;;;2.20;2.10;;;;;17.70;96002.00;;;;5136347;27;20548;-60
2023/08/18 05:15:30;;;;;;;1.63;1.53;;;;;17.70;96000.00;;;;5135057;27;20197;-60
2023/08/18 05:17:57;;;;;;;1.07;1.07;;;;;17.60;96001.00;;;;5135979;27;20209;-61
2023/08/18 05:20:24;;;;;;;1.00;1.00;;;;;17.60;96004.00;;;;5136440;27;20209;-61
2023/08/18 05:22:54;;;;;;;1.13;1.07;;;;;17.60;96000.00;;;;5136144;27;20194;-60
2023/08/18 05:25:21;;;;;;;1.57;1.50;;;;;17.60;96002.00;;;;5136073;27;20276;-60
2023/08/18 05:27:49;;;;;;;1.13;1.10;;;;;17.60;96000.00;;;;5135761;27;20209;-60
2023/08/18 05:30:17;;;;;;;1.40;1.33;;;;;17.70;96002.00;;;;5131174;27;20197;-59
2023/08/18 05:32:44;;;;;;;1.83;1.13;;;;;17.60;96001.00;;;;5132856;27;20206;-59
2023/08/18 05:35:12;;;;;;;0.80;0.80;;;;;17.50;95996.00;;;;5134424;27;20200;-59
2023/08/18 05:37:39;;;;;;;1.07;1.07;;;;;17.60;95996.00;;;;5134023;27;20213;-59
2023/08/18 05:40:10;;;;;;;1.23;1.23;;;;;17.60;95995.00;;;;5134505;27;20708;-58
2023/08/18 05:42:37;;;;;;;1.37;1.37;;;;;17.50;96000.00;;;;5133949;27;20212;-60
2023/08/18 05:45:06;;;;;;;1.40;1.30;;;;;17.60;95998.00;;;;5133128;27;20197;-58
2023/08/18 05:47:33;;;;;;;1.43;1.43;;;;;17.60;95999.00;;;;5133809;27;20209;-59
2023/08/18 05:50:02;;;;;;;1.80;1.70;;;;;17.80;95998.00;;;;5133884;27;20194;-61
2023/08/18 05:52:29;;;;;;;0.70;0.70;;;;;17.90;96002.00;;;;5132074;27;20571;-60
2023/08/18 05:54:57;;;;;;;1.13;1.13;;;;;18.10;95996.00;;;;5132491;27;20271;-60
2023/08/18 05:57:26;;;;;;;1.53;1.43;;;;;18.20;96000.00;;;;5133507;27;20217;-61
2023/08/18 05:59:53;;;;;;;0.77;0.77;;;;;18.30;96002.00;;;;5133659;27;20217;-60
2023/08/18 06:02:20;;;;;;;1.63;1.53;;;;;18.30;96003.00;;;;5132344;27;20193;-60
2023/08/18 06:04:48;;;;;;;2.23;1.33;;;;;18.40;96008.00;;;;5133252;27;20197;-61
2023/08/18 06:07:15;;;;;;;1.13;1.13;;;;;18.50;96005.00;;;;5133398;27;20220;-60
2023/08/18 06:09:44;;;;;;;1.43;1.33;;;;;18.50;96013.00;;;;5133550;27;20668;-61
2023/08/18 06:12:11;;;;;;;3.90;1.73;;;;;18.60;96013.00;;;;5133324;27;20221;-61
2023/08/18 06:14:40;;;;;;;1.33;0.80;;;;;18.70;96018.00;;;;5133396;27;20201;-61
2023/08/18 06:17:07;;;;;;;2.03;1.33;;;;;18.80;96019.00;;;;5133087;27;20221;-61
2023/08/18 06:19:34;;;;;;;1.47;1.37;;;;;18.90;96018.00;;;;5133142;27;20217;-61
2023/08/18 06:22:02;;;;;;;0.97;0.97;;;;;18.80;96017.00;;;;5133575;27;20270;-61
2023/08/18 06:24:30;;;;;;;2.37;1.90;;;;;19.00;96022.00;;;;5131768;27;20201;-61
2023/08/18 06:26:57;;;;;;;1.27;1.17;;;;;19.00;96024.00;;;;5133243;27;21018;-61
2023/08/18 06:29:25;;;;;;;1.07;1.07;;;;;19.20;96022.00;;;;5133363;27;20277;-61
2023/08/18 06:31:54;;;;;;;0.97;0.97;;;;;19.30;96028.00;;;;5132628;27;20220;-61
2023/08/18 06:34:21;;;;;;;1.00;0.90;;;;;19.30;96027.00;;;;5133273;27;20193;-61
2023/08/18 06:36:49;;;;;;;2.73;1.17;;;;;19.40;96028.00;;;;5132752;27;20293;-61
2023/08/18 06:39:16;;;;;;;1.43;1.33;;;;;19.40;96025.00;;;;5133281;27;20190;-61
2023/08/18 06:41:43;;;;;;;0.83;0.83;;;;;19.40;96022.00;;;;5132753;27;20197;-61
2023/08/18 06:44:11;;;;;;;3.50;1.10;;;;;19.60;96023.00;;;;5132953;27;20255;-62
2023/08/18 06:46:39;;;;;;;1.27;1.17;;;;;19.70;96021.00;;;;5132187;27;20266;-61
2023/08/18 06:49:07;;;;;;;0.80;0.80;;;;;19.80;96026.00;;;;5132981;27;20200;-61
2023/08/18 06:51:35;;;;;;;1.13;1.13;;;;;19.90;96029.00;;;;5132514;27;20205;-60
2023/08/18 06:54:02;;;;;;;1.70;0.80;;;;;20.00;96032.00;;;;5132537;27;20200;-60
2023/08/18 06:56:30;;;;;;;0.90;0.90;;;;;20.20;96031.00;;;;5132773;27;20599;-60
2023/08/18 06:58:58;;;;;;;0.97;0.97;;;;;20.20;96030.00;;;;5132958;27;20190;-60
2023/08/18 07:01:25;;;;;;;1.07;1.07;;;;;20.30;96026.00;;;;5133012;27;20665;-60
2023/08/18 07:03:54;;;;;;;1.27;1.27;;;;;20.50;96034.00;;;;5132668;27;20688;-60
2023/08/18 07:06:23;;;;;;;0.60;0.60;;;;;20.60;96028.00;;;;5132068;27;20216;-60
2023/08/18 07:08:50;;;;;;;0.60;0.60;;;;;20.70;96035.00;;;;5133022;27;20592;-61
2023/08/18 07:11:18;;;;;;;0.60;0.60;;;;;20.90;96037.00;;;;5132667;27;20193;-62
2023/08/18 07:13:45;;;;;;;1.20;1.20;;;;;20.90;96036.00;;;;5132353;27;20672;-61
2023/08/18 07:16:13;;;;;;;0.95;0.95;;;;;20.90;96028.00;;;;5132292;27;20589;-61
2023/08/18 07:18:40;;;;;;;0.73;0.73;;;;;21.00;96032.00;;;;5132340;28;20196;-61
2023/08/18 07:21:07;;;;;;;1.10;1.10;;;;;21.10;96039.00;;;;5132180;28;20213;-60
2023/08/18 07:23:36;;;;;;;0.68;0.68;;;;;20.90;96040.00;;;;5132557;28;20554;-61
2023/08/18 07:26:04;;;;;;;0.90;0.90;;;;;21.00;96049.00;;;;5132239;28;20212;-61
2023/08/18 07:28:32;;;;;;;0.90;0.90;;;;;21.10;96046.00;;;;5132135;28;20197;-61
2023/08/18 07:31:03;;;;;;;0.80;0.80;;;;;21.30;96045.00;;;;5132397;28;20200;-61
2023/08/18 07:33:31;;;;;;;0.73;0.73;;;;;21.50;96047.00;;;;5129876;28;20238;-61
2023/08/18 07:35:58;;;;;;;1.13;1.13;;;;;21.60;96045.00;;;;5132136;28;20213;-60
2023/08/18 07:38:26;;;;;;;0.77;0.77;;;;;21.70;96053.00;;;;5132938;28;20219;-61
2023/08/18 07:40:54;;;;;;;2.63;1.33;;;;;21.70;96061.00;;;;5132075;28;20253;-60
2023/08/18 07:43:22;;;;;;;1.10;1.10;;;;;21.80;96067.00;;;;5132607;28;20201;-61
2023/08/18 07:45:49;;;;;;;0.90;0.90;;;;;21.80;96074.00;;;;5131605;28;20208;-61
2023/08/18 07:48:17;;;;;;;0.93;0.90;;;;;21.90;96066.00;;;;5132359;28;20592;-61
2023/08/18 07:50:45;;;;;;;0.95;0.93;;;;;22.00;96067.00;;;;5131937;28;20197;-61
2023/08/18 07:53:12;;;;;;;0.57;0.57;;;;;22.10;96068.00;;;;5131563;28;20680;-61
2023/08/18 07:55:40;;;;;;;1.35;1.33;;;;;22.30;96073.00;;;;5131392;28;20196;-61
2023/08/18 07:58:09;;;;;;;1.02;1.02;;;;;22.40;96062.00;;;;5132595;28;20204;-61
2023/08/18 08:00:37;;;;;;;0.50;0.50;;;;;22.30;96066.00;;;;5131648;28;20242;-62
2023/08/18 08:03:04;;;;;;;1.20;1.13;;;;;22.40;96072.00;;;;5130856;28;20672;-61
2023/08/18 08:05:32;;;;;;;0.55;0.55;;;;;22.50;96067.00;;;;5131386;28;20676;-61
2023/08/18 08:08:00;;;;;;;0.65;0.65;;;;;22.70;96065.00;;;;5132200;28;20213;-62
2023/08/18 08:10:27;;;;;;;2.95;0.88;;;;;22.80;96063.00;;;;5130559;28;20189;-61
2023/08/18 08:12:55;;;;;;;0.73;0.73;;;;;22.70;96061.00;;;;5131810;28;20251;-61
2023/08/18 08:15:24;;;;;;;1.13;1.02;;;;;22.70;96061.00;;;;5131549;27;20197;-61
2023/08/18 08:17:52;;;;;;;0.80;0.80;;;;;22.90;96060.00;;;;5135242;27;20213;-61
2023/08/18 08:20:19;;;;;;;1.80;1.30;;;;;22.90;96066.00;;;;5135314;27;20261;-61
2023/08/18 08:22:49;;;;;;;1.80;0.85;;;;;23.20;96067.00;;;;5135676;27;20272;-61
2023/08/18 08:25:17;;;;;;;0.95;0.95;;;;;23.30;96062.00;;;;5135764;27;20235;-61
2023/08/18 08:27:45;;;;;;;1.00;1.00;;;;;23.30;96055.00;;;;5134069;27;20218;-61
2023/08/18 08:30:14;;;;;;;2.15;1.42;;;;;23.60;96059.00;;;;5132750;27;20292;-61
2023/08/18 08:32:43;;;;;;;0.52;0.52;;;;;23.80;96065.00;;;;5135331;27;20716;-61
2023/08/18 08:35:10;;;;;;;1.95;0.82;;;;;23.70;96058.00;;;;5134928;27;20193;-61
2023/08/18 08:37:41;;;;;;;0.50;0.50;;;;;23.70;96048.00;;;;5135115;27;20221;-61
2023/08/18 08:40:16;;;;;;;1.05;0.90;;;;;23.90;96064.00;;;;5134319;27;20232;-61
2023/08/18 08:42:43;;;;;;;1.20;1.20;;;;;24.20;96059.00;;;;5134177;27;20192;-60
2023/08/18 08:45:11;;;;;;;0.63;0.63;;;;;24.30;96059.00;;;;5133397;27;20212;-60
2023/08/18 08:47:40;;;;;;;8.77;1.55;;;;;24.20;96059.00;;;;5133535;27;20266;-60
2023/08/18 08:50:11;;;;;;;0.50;0.50;;;;;24.30;96057.00;;;;5134449;27;20194;-60
2023/08/18 08:52:40;;;;;;;7.53;1.33;;;;;24.50;96061.00;;;;5134563;27;20204;-61
2023/08/18 08:55:09;;;;;;;0.80;0.80;;;;;24.50;96068.00;;;;5135019;27;20280;-60
2023/08/18 08:57:37;;;;;;;0.50;0.50;;;;;24.50;96064.00;;;;5134050;27;20287;-61
2023/08/18 09:00:06;;;;;;;0.73;0.73;;;;;24.60;96069.00;;;;5135131;27;20193;-61
2023/08/18 09:02:34;;;;;;;0.73;0.73;;;;;24.70;96069.00;;;;5134653;27;20190;-61
2023/08/18 09:05:01;;;;;;;0.93;0.93;;;;;24.70;96069.00;;;;5135139;27;20744;-61
2023/08/18 09:07:30;;;;;;;0.95;0.95;;;;;24.80;96072.00;;;;5134006;27;20278;-61
2023/08/18 09:09:58;;;;;;;1.65;0.70;;;;;24.80;96066.00;;;;5130272;27;20671;-61
2023/08/18 09:12:29;;;;;;;0.60;0.60;;;;;24.90;96065.00;;;;5134638;27;20204;-61
2023/08/18 09:14:56;;;;;;;0.57;0.57;;;;;25.00;96064.00;;;;5134747;27;20185;-61
2023/08/18 09:17:27;;;;;;;0.60;0.60;;;;;25.10;96069.00;;;;5134227;27;20210;-61
2023/08/18 09:19:58;;;;;;;1.02;0.93;;;;;25.20;96069.00;;;;5134046;27;20189;-61
2023/08/18 09:22:25;;;;;;;0.90;0.90;;;;;25.50;96074.00;;;;5133341;27;20231;-61
2023/08/18 09:24:56;;;;;;;0.70;0.70;;;;;25.50;96067.00;;;;5134613;27;20189;-61
2023/08/18 09:27:24;;;;;;;1.05;1.00;;;;;25.40;96071.00;;;;5133341;27;20628;-61
2023/08/18 09:29:52;;;;;;;0.60;0.60;;;;;25.70;96074.00;;;;5134551;27;20263;-61
2023/08/18 09:32:19;;;;;;;1.17;1.17;;;;;25.80;96067.00;;;;5134469;27;20193;-60
2023/08/18 09:34:47;;;;;;;0.75;0.75;;;;;25.70;96064.00;;;;5134135;27;20276;-60
2023/08/18 09:37:18;;;;;;;0.93;0.93;;;;;25.70;96063.00;;;;5134265;27;20213;-62
2023/08/18 09:39:45;;;;;;;0.68;0.68;;;;;25.90;96070.00;;;;5134304;27;20197;-62
2023/08/18 09:42:15;;;;;;;0.95;0.80;;;;;26.10;96075.00;;;;5134410;27;20277;-62
2023/08/18 09:44:42;;;;;;;0.73;0.73;;;;;26.10;96068.00;;;;5133594;27;20224;-61
2023/08/18 09:47:13;;;;;;;1.17;1.17;;;;;26.30;96070.00;;;;5133825;27;20222;-61
2023/08/18 09:49:42;;;;;;;0.95;0.95;;;;;26.30;96065.00;;;;5134131;27;20232;-61
2023/08/18 09:52:14;;;;;;;8.35;1.52;;;;;26.40;96069.00;;;;5133813;27;20274;-61
2023/08/18 09:54:49;;;;;;;0.65;0.65;;;;;26.30;96056.00;;;;5134151;27;20213;-60
2023/08/18 09:57:23;;;;;;;0.73;0.73;;;;;26.50;96065.00;;;;5129430;27;20702;-60
2023/08/18 09:59:55;;;;;;;1.35;1.25;;;;;26.50;96056.00;;;;5133680;27;20856;-61
2023/08/18 10:02:29;;;;;;;5.20;1.58;;;;;26.60;96057.00;;;;5133133;27;20277;-61
2023/08/18 10:04:57;;;;;;;1.30;1.20;;;;;26.80;96063.00;;;;5133581;27;20276;-61
2023/08/18 10:07:26;;;;;;;0.90;0.90;;;;;27.00;96076.00;;;;5133302;27;20228;-61
2023/08/18 10:09:55;;;;;;;1.38;1.20;;;;;27.10;96064.00;;;;5133238;27;20197;-61
2023/08/18 10:12:24;;;;;;;0.90;0.90;;;;;27.20;96068.00;;;;5130913;27;20595;-61
2023/08/18 10:14:54;;;;;;;0.93;0.93;;;;;27.20;96069.00;;;;5131815;27;20185;-61
2023/08/18 10:17:24;;;;;;;0.77;0.77;;;;;27.30;96065.00;;;;5132917;27;20209;-61
2023/08/18 10:19:54;;;;;;;0.98;0.98;;;;;27.40;96060.00;;;;5132701;27;20202;-60
2023/08/18 10:22:25;;;;;;;0.95;0.95;;;;;27.30;96062.00;;;;5130920;27;20294;-63
2023/08/18 10:24:53;;;;;;;1.38;1.33;;;;;27.40;96057.00;;;;5129605;27;20197;-62
2023/08/18 10:27:39;;;;;;;1.20;1.15;;;;;27.60;96062.00;;;;5133294;27;20270;-62
2023/08/18 10:30:25;;;;;;;1.33;1.23;;;;;27.90;96060.00;;;;5133144;27;20576;-61
2023/08/18 10:32:54;;;;;;;0.93;0.93;;;;;27.70;96053.00;;;;5128001;27;20217;-62
2023/08/18 10:35:23;;;;;;;1.63;1.52;;;;;27.90;96055.00;;;;5133870;27;20197;-60
2023/08/18 10:37:50;;;;;;;0.90;0.90;;;;;27.80;96048.00;;;;5132574;27;20217;-62
2023/08/18 10:40:25;;;;;;;0.90;0.90;;;;;27.70;96049.00;;;;5132106;27;20196;-62
2023/08/18 10:42:58;;;;;;;1.33;1.23;;;;;27.90;96050.00;;;;5132502;27;20601;-62
2023/08/18 10:45:28;;;;;;;12.60;0.88;;;;;28.00;96037.00;;;;5133193;27;20208;-62
2023/08/18 10:47:58;;;;;;;2.08;1.17;;;;;28.00;96041.00;;;;5132748;27;20221;-62
2023/08/18 10:50:29;;;;;;;1.02;1.00;;;;;28.20;96038.00;;;;5131876;27;20224;-62
2023/08/18 10:52:57;;;;;;;2.38;1.00;;;;;28.30;96037.00;;;;5131685;27;20189;-62
2023/08/18 10:55:25;;;;;;;0.70;0.70;;;;;28.50;96026.00;;;;5132816;27;20200;-61
2023/08/18 10:57:54;;;;;;;0.93;0.93;;;;;28.60;96027.00;;;;5132482;27;20217;-61
2023/08/18 11:00:21;;;;;;;0.80;0.80;;;;;28.60;96020.00;;;;5132837;27;20208;-61
2023/08/18 11:02:50;;;;;;;1.17;1.10;;;;;29.10;96036.00;;;;5132553;27;20668;-61
2023/08/18 11:05:19;;;;;;;0.80;0.80;;;;;29.20;96035.00;;;;5132537;27;20258;-61
2023/08/18 11:07:47;;;;;;;1.20;1.02;;;;;29.20;96026.00;;;;5132265;27;20228;-61
2023/08/18 11:10:18;;;;;;;1.58;1.48;;;;;29.50;96023.00;;;;5132382;27;20663;-62
2023/08/18 11:12:47;;;;;;;0.75;0.75;;;;;29.50;96012.00;;;;5128204;27;20276;-62
2023/08/18 11:15:17;;;;;;;14.00;0.90;;;;;29.50;96011.00;;;;5132674;27;20195;-62
2023/08/18 11:17:44;;;;;;;0.90;0.90;;;;;29.60;96014.00;;;;5131222;27;20700;-61
2023/08/18 11:20:12;;;;;;;1.25;1.25;;;;;29.80;96006.00;;;;5132243;28;20204;-61
2023/08/18 11:22:41;;;;;;;0.60;0.60;;;;;30.00;96006.00;;;;5132492;28;20224;-61
2023/08/18 11:25:11;;;;;;;0.80;0.80;;;;;29.70;96006.00;;;;5132212;28;20200;-61
2023/08/18 11:27:40;;;;;;;0.68;0.68;;;;;30.20;96002.00;;;;5132194;28;20657;-61
2023/08/18 11:30:10;;;;;;;1.55;0.80;;;;;30.30;96009.00;;;;5128073;28;20209;-62
2023/08/18 11:32:39;;;;;;;0.55;0.55;;;;;30.60;96003.00;;;;5130854;28;20296;-61
2023/08/18 11:35:08;;;;;;;0.70;0.70;;;;;30.50;96006.00;;;;5131999;28;20258;-61
2023/08/18 11:37:40;;;;;;;2.28;1.00;;;;;30.40;96015.00;;;;5131984;28;20236;-62
2023/08/18 11:40:10;;;;;;;1.08;1.08;;;;;30.40;96016.00;;;;5131161;28;20243;-62
2023/08/18 11:42:40;;;;;;;0.70;0.70;;;;;30.50;96006.00;;;;5132100;28;20217;-62
2023/08/18 11:45:09;;;;;;;1.50;1.02;;;;;30.80;96006.00;;;;5131918;28;20288;-62
2023/08/18 11:47:38;;;;;;;0.63;0.63;;;;;30.50;96006.00;;;;5130895;28;20209;-61
2023/08/18 11:50:07;;;;;;;0.85;0.85;;;;;30.60;96013.00;;;;5131753;27;20238;-61
2023/08/18 11:52:45;;;;;;;0.80;0.80;;;;;30.90;96007.00;;;;5135985;27;20220;-61
2023/08/18 11:55:14;;;;;;;1.38;1.27;;;;;30.90;96016.00;;;;5131640;27;20208;-61
2023/08/18 11:57:45;;;;;;;0.85;0.85;;;;;30.80;96012.00;;;;5133821;27;20221;-61
2023/08/18 12:00:14;;;;;;;0.80;0.80;;;;;31.00;96008.00;;;;5135066;27;20664;-61
2023/08/18 12:02:47;;;;;;;8.40;1.02;;;;;31.20;96013.00;;;;5135656;27;20255;-62
2023/08/18 12:05:22;;;;;;;0.88;0.88;;;;;31.10;96004.00;;;;5136140;27;20186;-62
2023/08/18 12:07:52;;;;;;;0.90;0.90;;;;;31.00;96010.00;;;;5135387;27;20213;-62
2023/08/18 12:10:19;;;;;;;0.88;0.88;;;;;31.00;96003.00;;;;5135803;27;20633;-62
2023/08/18 12:12:52;;;;;;;0.68;0.68;;;;;31.10;96006.00;;;;5135469;27;20193;-62
2023/08/18 12:15:20;;;;;;;1.55;1.45;;;;;31.00;96002.00;;;;5133847;27;20209;-62
2023/08/18 12:17:48;;;;;;;1.08;1.05;;;;;31.00;96006.00;;;;5134427;27;20221;-62
2023/08/18 12:20:18;;;;;;;0.80;0.80;;;;;31.30;96002.00;;;;5135604;27;20201;-60
2023/08/18 12:22:47;;;;;;;14.18;1.33;;;;;31.60;96007.00;;;;5135491;27;20221;-60
2023/08/18 12:25:14;;;;;;;3.70;1.50;;;;;31.70;96009.00;;;;5134864;27;20189;-60